createdAt,value
2018-05-26T00:01:12.088Z,91.00
2018-05-26T00:03:40.385Z,91.10
2018-05-26T00:06:07.925Z,91.10
2018-05-26T00:08:35.498Z,91.00
2018-05-26T00:11:03.803Z,91.30
2018-05-26T00:13:31.359Z,91.00
2018-05-26T00:15:58.899Z,91.00
2018-05-26T00:18:27.310Z,91.00
2018-05-26T00:20:54.876Z,91.00
2018-05-26T00:23:22.423Z,90.90
2018-05-26T00:25:49.955Z,90.90
2018-05-26T00:28:18.282Z,91.10
2018-05-26T00:30:45.821Z,90.90
2018-05-26T00:33:14.098Z,90.80
2018-05-26T00:35:42.411Z,90.90
2018-05-26T00:38:09.948Z,90.90
2018-05-26T00:40:38.257Z,91.10
2018-05-26T00:43:06.556Z,91.10
2018-05-26T00:45:34.201Z,91.10
2018-05-26T00:48:01.757Z,91.20
2018-05-26T00:50:29.544Z,91.40
2018-05-26T00:52:57.091Z,91.30
2018-05-26T00:55:24.616Z,91.20
2018-05-26T00:57:52.167Z,91.10
2018-05-26T01:00:19.692Z,91.10
2018-05-26T01:02:47.261Z,91.10
2018-05-26T01:05:14.780Z,91.30
2018-05-26T01:07:42.300Z,91.40
2018-05-26T01:10:09.845Z,91.40
2018-05-26T01:12:37.411Z,91.40
2018-05-26T01:15:04.961Z,91.40
2018-05-26T01:17:33.256Z,91.20
2018-05-26T01:20:00.773Z,91.10
2018-05-26T01:22:29.094Z,91.00
2018-05-26T01:24:56.681Z,91.10
2018-05-26T01:27:24.208Z,91.10
2018-05-26T01:29:52.519Z,91.00
2018-05-26T01:32:20.054Z,91.00
2018-05-26T01:34:48.344Z,91.30
2018-05-26T01:37:15.924Z,91.20
2018-05-26T01:39:43.455Z,91.40
2018-05-26T01:42:11.734Z,91.10
2018-05-26T01:44:40.153Z,91.20
2018-05-26T01:47:07.682Z,91.20
2018-05-26T01:49:36.100Z,91.50
2018-05-26T01:52:03.639Z,91.40
2018-05-26T01:54:31.963Z,91.40
2018-05-26T01:56:59.489Z,91.40
2018-05-26T01:59:27.768Z,91.40
2018-05-26T02:01:56.083Z,91.60
2018-05-26T02:04:23.606Z,91.50
2018-05-26T02:06:52.019Z,91.60
2018-05-26T02:09:19.553Z,91.50
2018-05-26T02:11:47.967Z,91.70
2018-05-26T02:14:15.493Z,91.70
2018-05-26T02:16:43.055Z,91.60
2018-05-26T02:19:11.349Z,91.70
2018-05-26T02:21:39.642Z,91.50
2018-05-26T02:24:07.955Z,91.60
2018-05-26T02:26:35.460Z,91.60
2018-05-26T02:29:02.997Z,91.60
2018-05-26T02:31:30.535Z,91.90
2018-05-26T02:33:58.081Z,91.70
2018-05-26T02:36:25.615Z,91.80
2018-05-26T02:38:53.940Z,91.80
2018-05-26T02:41:21.469Z,91.80
2018-05-26T02:43:49.010Z,91.70
2018-05-26T02:46:16.543Z,91.60
2018-05-26T02:48:44.070Z,91.70
2018-05-26T02:51:12.378Z,91.90
2018-05-26T02:53:39.945Z,91.80
2018-05-26T02:56:07.507Z,91.90
2018-05-26T02:58:35.040Z,91.90
2018-05-26T03:01:03.387Z,91.80
2018-05-26T03:03:31.020Z,91.70
2018-05-26T03:06:04.183Z,91.70
2018-05-26T03:08:38.076Z,91.70
2018-05-26T03:11:11.949Z,91.70
2018-05-26T03:13:45.334Z,91.70
2018-05-26T03:16:28.687Z,91.70
2018-05-26T03:18:56.214Z,91.70
2018-05-26T03:21:23.762Z,91.70
2018-05-26T03:23:52.065Z,91.70
2018-05-26T03:26:19.590Z,91.70
2018-05-26T03:28:47.905Z,91.60
2018-05-26T03:31:15.474Z,91.60
2018-05-26T03:33:43.010Z,91.50
2018-05-26T03:36:11.293Z,91.70
2018-05-26T03:38:39.603Z,91.90
2018-05-26T03:41:07.127Z,91.90
2018-05-26T03:43:34.721Z,91.80
2018-05-26T03:46:02.977Z,91.90
2018-05-26T03:48:31.271Z,91.90
2018-05-26T03:50:59.579Z,92.00
2018-05-26T03:53:27.135Z,92.00
2018-05-26T03:56:06.413Z,92.10
2018-05-26T03:58:45.923Z,92.00
2018-05-26T04:01:13.480Z,92.10
2018-05-26T04:03:41.005Z,92.20
2018-05-26T04:06:09.360Z,92.30
2018-05-26T04:08:36.862Z,92.30
2018-05-26T04:11:04.402Z,92.50
2018-05-26T04:13:32.008Z,92.50
2018-05-26T04:15:59.579Z,92.70
2018-05-26T04:18:27.134Z,92.70
2018-05-26T04:20:54.660Z,92.60
2018-05-26T04:23:22.205Z,92.70
2018-05-26T04:25:49.736Z,92.60
2018-05-26T04:28:17.298Z,92.70
2018-05-26T04:30:44.864Z,92.60
2018-05-26T04:33:12.417Z,92.70
2018-05-26T04:35:39.943Z,92.70
2018-05-26T04:38:07.476Z,92.70
2018-05-26T04:40:35.113Z,92.50
2018-05-26T04:43:02.617Z,92.90
2018-05-26T04:45:30.170Z,92.90
2018-05-26T04:47:57.698Z,92.90
2018-05-26T04:50:25.269Z,92.80
2018-05-26T04:52:52.839Z,92.80
2018-05-26T04:55:20.359Z,92.80
2018-05-26T04:57:48.746Z,93.00
2018-05-26T05:00:16.249Z,93.00
2018-05-26T05:02:43.813Z,92.80
2018-05-26T05:05:11.333Z,93.20
2018-05-26T05:07:38.852Z,93.10
2018-05-26T05:10:06.403Z,93.30
2018-05-26T05:12:33.937Z,93.50
2018-05-26T05:15:02.261Z,93.10
2018-05-26T05:17:29.779Z,93.10
2018-05-26T05:19:58.082Z,92.20
2018-05-26T05:22:25.607Z,92.20
2018-05-26T05:24:53.155Z,92.20
2018-05-26T05:27:20.699Z,92.40
2018-05-26T05:29:48.249Z,92.60
2018-05-26T05:32:15.801Z,92.20
2018-05-26T05:34:43.332Z,91.90
2018-05-26T05:37:11.661Z,92.30
2018-05-26T05:39:39.206Z,92.20
2018-05-26T05:42:06.791Z,92.50
2018-05-26T05:44:34.360Z,91.90
2018-05-26T05:47:01.881Z,92.00
2018-05-26T05:49:29.424Z,91.90
2018-05-26T05:51:56.942Z,91.90
2018-05-26T05:54:24.479Z,92.20
2018-05-26T05:56:52.774Z,91.40
2018-05-26T05:59:20.298Z,91.30
2018-05-26T06:01:47.849Z,91.80
2018-05-26T06:04:15.382Z,92.30
2018-05-26T06:06:42.921Z,92.10
2018-05-26T06:09:11.212Z,91.50
2018-05-26T06:11:38.790Z,91.50
2018-05-26T06:14:06.331Z,91.30
2018-05-26T06:16:34.645Z,90.60
2018-05-26T06:19:02.203Z,90.50
2018-05-26T06:21:29.720Z,90.80
2018-05-26T06:23:58.043Z,91.00
2018-05-26T06:26:25.631Z,91.00
2018-05-26T06:28:53.881Z,91.30
2018-05-26T06:31:21.428Z,91.30
2018-05-26T06:33:49.718Z,90.40
2018-05-26T06:36:18.030Z,90.30
2018-05-26T06:38:45.570Z,90.30
2018-05-26T06:41:13.122Z,90.40
2018-05-26T06:43:41.430Z,90.60
2018-05-26T06:46:08.954Z,90.60
2018-05-26T06:48:37.275Z,90.80
2018-05-26T06:51:04.801Z,90.70
2018-05-26T06:53:32.324Z,90.30
2018-05-26T06:55:59.855Z,90.40
2018-05-26T06:58:27.435Z,90.80
2018-05-26T07:00:54.996Z,90.70
2018-05-26T07:03:22.544Z,90.50
2018-05-26T07:05:50.846Z,89.80
2018-05-26T07:08:18.358Z,89.80
2018-05-26T07:10:45.903Z,90.20
2018-05-26T07:13:13.427Z,89.70
2018-05-26T07:15:40.985Z,90.00
2018-05-26T07:18:08.530Z,88.90
2018-05-26T07:20:36.854Z,85.10
2018-05-26T07:23:04.392Z,84.90
2018-05-26T07:25:31.919Z,85.30
2018-05-26T07:27:59.478Z,85.10
2018-05-26T07:30:27.010Z,85.40
2018-05-26T07:32:54.541Z,84.10
2018-05-26T07:35:22.866Z,84.80
2018-05-26T07:37:50.414Z,84.80
2018-05-26T07:40:17.939Z,85.30
2018-05-26T07:42:46.220Z,83.30
2018-05-26T07:45:14.638Z,83.00
2018-05-26T07:47:42.204Z,83.10
2018-05-26T07:50:09.746Z,83.30
2018-05-26T07:52:38.042Z,82.80
2018-05-26T07:55:05.598Z,82.70
2018-05-26T07:57:33.206Z,81.40
2018-05-26T08:00:00.718Z,81.10
2018-05-26T08:02:29.024Z,82.50
2018-05-26T08:04:56.561Z,82.30
2018-05-26T08:07:24.863Z,81.40
2018-05-26T08:09:52.408Z,81.40
2018-05-26T08:12:20.739Z,79.50
2018-05-26T08:14:48.300Z,80.10
2018-05-26T08:17:15.899Z,78.50
2018-05-26T08:19:43.403Z,80.90
2018-05-26T08:22:10.936Z,77.20
2018-05-26T08:24:39.360Z,80.80
2018-05-26T08:27:06.884Z,81.30
2018-05-26T08:29:35.204Z,79.70
2018-05-26T08:32:02.770Z,79.10
2018-05-26T08:34:30.301Z,77.20
2018-05-26T08:36:58.626Z,78.20
2018-05-26T08:39:26.147Z,78.10
2018-05-26T08:41:54.465Z,78.60
2018-05-26T08:44:21.997Z,78.60
2018-05-26T08:46:51.123Z,77.70
2018-05-26T08:49:19.499Z,79.10
2018-05-26T08:51:47.017Z,79.10
2018-05-26T08:54:14.559Z,77.80
2018-05-26T08:56:42.084Z,79.60
2018-05-26T08:59:09.639Z,79.80
2018-05-26T09:01:37.925Z,79.40
2018-05-26T09:04:06.332Z,81.50
2018-05-26T09:06:33.864Z,81.40
2018-05-26T09:09:02.272Z,78.60
2018-05-26T09:11:29.817Z,78.50
2018-05-26T09:13:58.110Z,78.70
2018-05-26T09:16:25.669Z,78.70
2018-05-26T09:18:53.245Z,78.40
2018-05-26T09:21:20.794Z,78.10
2018-05-26T09:23:48.381Z,78.30
2018-05-26T09:26:15.957Z,79.00
2018-05-26T09:28:43.469Z,78.00
2018-05-26T09:31:11.951Z,76.80
2018-05-26T09:33:39.470Z,76.20
2018-05-26T09:36:07.033Z,75.40
2018-05-26T09:38:34.591Z,76.80
2018-05-26T09:41:02.135Z,76.50
2018-05-26T09:43:29.711Z,76.20
2018-05-26T09:45:57.266Z,76.70
2018-05-26T09:48:24.788Z,76.00
2018-05-26T09:50:52.346Z,76.00
2018-05-26T09:53:19.980Z,76.90
2018-05-26T09:55:47.536Z,75.10
2018-05-26T09:58:15.056Z,73.50
2018-05-26T10:00:42.584Z,74.20
2018-05-26T10:03:10.138Z,75.80
2018-05-26T10:05:37.685Z,74.20
2018-05-26T10:08:05.254Z,75.70
2018-05-26T10:10:32.782Z,73.80
2018-05-26T10:13:01.086Z,74.70
2018-05-26T10:15:28.656Z,74.80
2018-05-26T10:17:56.181Z,75.90
2018-05-26T10:20:23.719Z,76.70
2018-05-26T10:22:51.360Z,76.10
2018-05-26T10:25:18.895Z,76.20
2018-05-26T10:27:47.197Z,76.00
2018-05-26T10:30:14.751Z,76.00
2018-05-26T10:32:42.333Z,73.40
2018-05-26T10:35:09.895Z,75.10
2018-05-26T10:37:37.455Z,74.90
2018-05-26T10:40:04.987Z,74.30
2018-05-26T10:42:33.416Z,74.00
2018-05-26T10:45:00.936Z,73.60
2018-05-26T10:47:28.537Z,74.40
2018-05-26T10:49:56.100Z,75.50
2018-05-26T10:52:24.486Z,72.60
2018-05-26T10:54:52.027Z,72.70
2018-05-26T10:57:20.348Z,72.80
2018-05-26T10:59:47.893Z,72.80
2018-05-26T11:02:15.460Z,73.70
2018-05-26T11:04:43.025Z,74.10
2018-05-26T11:07:10.548Z,71.10
2018-05-26T11:09:38.105Z,70.50
2018-05-26T11:12:05.656Z,74.00
2018-05-26T11:14:33.239Z,72.30
2018-05-26T11:17:00.746Z,71.90
2018-05-26T11:19:28.288Z,71.30
2018-05-26T11:21:56.608Z,71.40
2018-05-26T11:24:24.199Z,71.50
2018-05-26T11:26:51.678Z,73.30
2018-05-26T11:29:19.223Z,73.90
2018-05-26T11:31:46.752Z,74.00
2018-05-26T11:34:14.310Z,72.00
2018-05-26T11:36:41.843Z,71.40
2018-05-26T11:39:10.153Z,73.00
2018-05-26T11:41:37.677Z,72.50
2018-05-26T11:44:05.976Z,68.80
2018-05-26T11:46:34.389Z,69.00
2018-05-26T11:49:01.920Z,69.00
2018-05-26T11:51:30.244Z,69.20
2018-05-26T11:53:57.782Z,69.10
2018-05-26T11:56:25.373Z,69.80
2018-05-26T11:58:52.909Z,70.20
2018-05-26T12:01:20.445Z,68.40
2018-05-26T12:03:47.992Z,68.50
2018-05-26T12:06:15.623Z,69.10
2018-05-26T12:08:43.151Z,69.60
2018-05-26T12:11:11.481Z,69.70
2018-05-26T12:13:39.029Z,69.60
2018-05-26T12:16:06.602Z,69.50
2018-05-26T12:18:34.139Z,67.90
2018-05-26T12:21:02.455Z,65.70
2018-05-26T12:23:29.985Z,65.70
2018-05-26T12:25:58.317Z,66.60
2018-05-26T12:28:25.861Z,66.50
2018-05-26T12:30:53.382Z,64.20
2018-05-26T12:33:21.690Z,62.10
2018-05-26T12:35:49.222Z,62.10
2018-05-26T12:38:16.824Z,65.40
2018-05-26T12:40:44.388Z,64.80
2018-05-26T12:43:11.954Z,67.50
2018-05-26T12:45:40.248Z,64.20
2018-05-26T12:48:07.782Z,64.20
2018-05-26T12:50:36.090Z,64.40
2018-05-26T12:53:03.619Z,64.40
2018-05-26T12:55:31.956Z,64.20
2018-05-26T12:57:59.592Z,64.20
2018-05-26T13:00:27.125Z,61.10
2018-05-26T13:02:55.442Z,61.60
2018-05-26T13:05:22.971Z,61.50
2018-05-26T13:07:51.362Z,63.20
2018-05-26T13:10:19.673Z,64.50
2018-05-26T13:12:47.225Z,64.50
2018-05-26T13:15:14.769Z,61.70
2018-05-26T13:17:43.181Z,59.20
2018-05-26T13:20:10.730Z,59.00
2018-05-26T13:22:38.258Z,61.40
2018-05-26T13:25:05.807Z,60.90
2018-05-26T13:27:33.352Z,60.70
2018-05-26T13:30:00.903Z,60.20
2018-05-26T13:32:28.477Z,61.40
2018-05-26T13:34:55.996Z,59.70
2018-05-26T13:37:24.279Z,61.00
2018-05-26T13:39:52.601Z,62.40
2018-05-26T13:42:20.132Z,62.40
2018-05-26T13:44:48.537Z,61.70
2018-05-26T13:47:16.103Z,61.80
2018-05-26T13:49:43.667Z,60.00
2018-05-26T13:52:11.225Z,58.30
2018-05-26T13:54:38.801Z,59.80
2018-05-26T13:57:07.096Z,61.50
2018-05-26T13:59:34.646Z,61.40
2018-05-26T14:02:02.170Z,57.30
2018-05-26T14:04:29.700Z,59.30
2018-05-26T14:06:57.246Z,60.80
2018-05-26T14:09:24.801Z,60.50
2018-05-26T14:11:52.334Z,60.50
2018-05-26T14:14:20.644Z,58.90
2018-05-26T14:16:48.182Z,58.80
2018-05-26T14:19:16.490Z,59.10
2018-05-26T14:21:44.072Z,59.10
2018-05-26T14:24:11.628Z,59.90
2018-05-26T14:26:39.157Z,59.00
2018-05-26T14:29:07.462Z,58.60
2018-05-26T14:31:34.993Z,58.70
2018-05-26T14:34:03.369Z,57.20
2018-05-26T14:36:30.900Z,57.10
2018-05-26T14:38:58.549Z,58.10
2018-05-26T14:41:26.107Z,57.50
2018-05-26T14:43:53.647Z,56.80
2018-05-26T14:46:21.965Z,57.90
2018-05-26T14:48:49.494Z,57.90
2018-05-26T14:51:17.792Z,58.50
2018-05-26T14:53:45.357Z,58.50
2018-05-26T14:56:13.032Z,59.10
2018-05-26T14:58:40.594Z,58.30
2018-05-26T15:01:08.312Z,57.50
2018-05-26T15:03:35.846Z,58.60
2018-05-26T15:06:03.404Z,59.90
2018-05-26T15:08:30.930Z,60.10
2018-05-26T15:10:59.230Z,59.60
2018-05-26T15:13:26.810Z,59.50
2018-05-26T15:15:55.099Z,61.00
2018-05-26T15:18:22.748Z,60.90
2018-05-26T15:20:50.290Z,58.40
2018-05-26T15:23:18.694Z,58.40
2018-05-26T15:25:46.235Z,58.40
2018-05-26T15:28:14.645Z,58.20
2018-05-26T15:30:42.177Z,58.20
2018-05-26T15:33:10.538Z,58.40
2018-05-26T15:35:38.168Z,58.40
2018-05-26T15:38:05.742Z,58.30
2018-05-26T15:40:33.282Z,57.70
2018-05-26T15:43:00.818Z,57.70
2018-05-26T15:45:29.233Z,57.90
2018-05-26T15:47:56.752Z,57.90
2018-05-26T15:50:24.315Z,57.80
2018-05-26T15:52:51.832Z,56.60
2018-05-26T15:55:19.490Z,57.40
2018-05-26T15:57:47.031Z,56.70
2018-05-26T16:00:15.356Z,57.00
2018-05-26T16:02:42.909Z,57.00
2018-05-26T16:05:10.437Z,58.00
2018-05-26T16:07:38.750Z,57.60
2018-05-26T16:10:07.039Z,58.70
2018-05-26T16:12:34.598Z,58.60
2018-05-26T16:15:02.084Z,58.80
2018-05-26T16:17:29.722Z,59.30
2018-05-26T16:19:57.265Z,59.30
2018-05-26T16:22:24.795Z,58.00
2018-05-26T16:24:52.352Z,58.70
2018-05-26T16:27:19.866Z,59.70
2018-05-26T16:29:47.403Z,58.70
2018-05-26T16:32:15.709Z,58.80
2018-05-26T16:34:43.228Z,58.80
2018-05-26T16:37:10.789Z,57.70
2018-05-26T16:39:38.312Z,58.20
2018-05-26T16:42:05.982Z,59.00
2018-05-26T16:44:33.502Z,58.40
2018-05-26T16:47:01.851Z,59.00
2018-05-26T16:49:29.364Z,58.90
2018-05-26T16:51:57.678Z,59.50
2018-05-26T16:54:25.217Z,59.40
2018-05-26T16:56:53.513Z,59.10
2018-05-26T16:59:21.061Z,59.10
2018-05-26T17:01:49.366Z,58.30
2018-05-26T17:04:16.906Z,58.30
2018-05-26T17:06:45.218Z,59.20
2018-05-26T17:09:12.770Z,59.20
2018-05-26T17:11:40.311Z,58.00
2018-05-26T17:14:08.618Z,61.10
2018-05-26T17:16:36.176Z,61.10
2018-05-26T17:19:03.746Z,61.20
2018-05-26T17:21:31.284Z,61.40
2018-05-26T17:23:59.603Z,62.60
2018-05-26T17:26:27.156Z,62.60
2018-05-26T17:28:54.720Z,60.50
2018-05-26T17:31:22.263Z,60.70
2018-05-26T17:33:50.582Z,60.60
2018-05-26T17:36:18.107Z,60.60
2018-05-26T17:38:46.453Z,61.50
2018-05-26T17:41:13.986Z,61.50
2018-05-26T17:43:41.546Z,61.40
2018-05-26T17:46:09.107Z,61.10
2018-05-26T17:48:36.689Z,60.90
2018-05-26T17:51:04.339Z,60.90
2018-05-26T17:53:31.865Z,61.20
2018-05-26T17:56:00.286Z,61.00
2018-05-26T17:58:27.835Z,61.30
2018-05-26T18:00:56.133Z,60.90
2018-05-26T18:03:23.699Z,60.90
2018-05-26T18:05:51.234Z,61.60
2018-05-26T18:08:19.552Z,63.00
2018-05-26T18:10:47.074Z,63.00
2018-05-26T18:13:15.399Z,64.00
2018-05-26T18:15:42.957Z,63.40
2018-05-26T18:18:10.619Z,62.20
2018-05-26T18:20:38.913Z,63.00
2018-05-26T18:23:06.571Z,62.90
2018-05-26T18:25:34.124Z,62.90
2018-05-26T18:28:01.699Z,63.30
2018-05-26T18:30:29.250Z,63.70
2018-05-26T18:32:56.785Z,63.90
2018-05-26T18:35:24.353Z,64.50
2018-05-26T18:37:51.877Z,64.90
2018-05-26T18:40:19.419Z,64.40
2018-05-26T18:42:47.084Z,64.50
2018-05-26T18:45:14.643Z,64.70
2018-05-26T18:47:42.217Z,64.00
2018-05-26T18:50:09.755Z,64.50
2018-05-26T18:52:38.093Z,64.50
2018-05-26T18:55:05.646Z,64.30
2018-05-26T18:57:33.295Z,64.40
2018-05-26T19:00:00.838Z,64.70
2018-05-26T19:02:29.113Z,64.40
2018-05-26T19:04:57.449Z,64.80
2018-05-26T19:07:24.982Z,64.80
2018-05-26T19:09:52.557Z,64.80
2018-05-26T19:12:20.091Z,65.00
2018-05-26T19:14:47.649Z,64.80
2018-05-26T19:17:15.208Z,65.70
2018-05-26T19:19:43.624Z,65.40
2018-05-26T19:22:11.181Z,65.40
2018-05-26T19:24:38.755Z,65.40
2018-05-26T19:27:06.420Z,65.00
2018-05-26T19:29:33.965Z,65.40
2018-05-26T19:32:02.368Z,65.70
2018-05-26T19:34:29.944Z,65.60
2018-05-26T19:36:57.557Z,65.80
2018-05-26T19:39:25.123Z,65.30
2018-05-26T19:41:53.453Z,65.40
2018-05-26T19:44:21.041Z,65.30
2018-05-26T19:46:48.681Z,65.40
2018-05-26T19:49:16.341Z,65.70
2018-05-26T19:51:43.907Z,67.30
2018-05-26T19:54:11.477Z,66.70
2018-05-26T19:56:39.045Z,67.30
2018-05-26T19:59:06.588Z,67.50
2018-05-26T20:01:34.266Z,67.50
2018-05-26T20:04:01.834Z,68.20
2018-05-26T20:06:29.421Z,68.20
2018-05-26T20:08:59.785Z,68.80
2018-05-26T20:11:27.378Z,68.60
2018-05-26T20:13:54.947Z,69.20
2018-05-26T20:16:22.681Z,68.30
2018-05-26T20:18:50.993Z,69.70
2018-05-26T20:21:18.571Z,69.30
2018-05-26T20:23:46.156Z,69.20
2018-05-26T20:26:13.813Z,70.50
2018-05-26T20:28:41.359Z,70.10
2018-05-26T20:31:08.959Z,70.30
2018-05-26T20:33:36.509Z,70.40
2018-05-26T20:36:04.608Z,70.40
2018-05-26T20:38:32.170Z,70.50
2018-05-26T20:40:59.753Z,71.20
2018-05-26T20:43:27.312Z,71.00
2018-05-26T20:45:54.859Z,71.60
2018-05-26T20:48:22.426Z,72.30
2018-05-26T20:50:49.981Z,72.60
2018-05-26T20:53:17.527Z,72.10
2018-05-26T20:55:45.101Z,72.20
2018-05-26T20:58:13.374Z,72.50
2018-05-26T21:00:41.043Z,72.50
2018-05-26T21:03:08.593Z,72.50
2018-05-26T21:05:36.164Z,72.60
2018-05-26T21:08:03.702Z,72.20
2018-05-26T21:10:32.060Z,72.70
2018-05-26T21:12:59.570Z,72.60
2018-05-26T21:15:27.121Z,72.70
2018-05-26T21:17:55.442Z,73.00
2018-05-26T21:20:22.985Z,72.90
2018-05-26T21:22:50.517Z,73.20
2018-05-26T21:25:18.841Z,73.50
2018-05-26T21:27:46.408Z,73.50
2018-05-26T21:30:13.938Z,73.50
2018-05-26T21:32:42.358Z,73.90
2018-05-26T21:35:09.897Z,73.90
2018-05-26T21:37:37.430Z,73.60
2018-05-26T21:40:05.732Z,74.00
2018-05-26T21:42:34.065Z,74.00
2018-05-26T21:45:01.605Z,74.00
2018-05-26T21:47:29.168Z,74.20
2018-05-26T21:49:56.707Z,73.80
2018-05-26T21:52:25.016Z,75.50
2018-05-26T21:54:52.554Z,75.50
2018-05-26T21:57:20.866Z,75.70
2018-05-26T21:59:48.418Z,75.60
2018-05-26T22:02:15.980Z,75.90
2018-05-26T22:04:43.522Z,75.60
2018-05-26T22:07:11.834Z,75.80
2018-05-26T22:09:39.400Z,75.70
2018-05-26T22:12:06.961Z,75.70
2018-05-26T22:14:34.625Z,76.00
2018-05-26T22:17:02.179Z,76.00
2018-05-26T22:19:29.713Z,76.20
2018-05-26T22:21:58.021Z,76.50
2018-05-26T22:24:26.347Z,77.50
2018-05-26T22:26:53.983Z,77.50
2018-05-26T22:29:21.549Z,77.50
2018-05-26T22:31:49.112Z,78.10
2018-05-26T22:34:16.648Z,78.30
2018-05-26T22:36:45.061Z,78.20
2018-05-26T22:39:12.600Z,78.10
2018-05-26T22:41:40.924Z,78.40
2018-05-26T22:44:08.466Z,78.30
2018-05-26T22:46:36.016Z,78.40
2018-05-26T22:49:04.422Z,78.50
2018-05-26T22:51:31.990Z,78.50
2018-05-26T22:53:59.527Z,78.70
2018-05-26T22:56:27.847Z,78.80
2018-05-26T22:58:55.362Z,79.30
2018-05-26T23:01:23.650Z,78.80
2018-05-26T23:03:51.952Z,79.40
2018-05-26T23:06:19.474Z,79.30
2018-05-26T23:08:47.084Z,79.70
2018-05-26T23:11:14.628Z,79.70
2018-05-26T23:13:42.950Z,80.00
2018-05-26T23:16:10.496Z,80.00
2018-05-26T23:18:38.059Z,79.80
2018-05-26T23:21:05.594Z,79.80
2018-05-26T23:23:33.885Z,79.70
2018-05-26T23:26:02.193Z,79.40
2018-05-26T23:28:29.733Z,79.40
2018-05-26T23:30:58.152Z,79.80
2018-05-26T23:33:25.670Z,79.70
2018-05-26T23:35:54.081Z,80.40
2018-05-26T23:38:21.616Z,80.30
2018-05-26T23:40:50.031Z,81.20
2018-05-26T23:43:17.567Z,81.10
2018-05-26T23:45:45.871Z,81.40
2018-05-26T23:48:13.441Z,81.30
2018-05-26T23:50:41.107Z,81.50
2018-05-26T23:53:08.665Z,81.50
2018-05-26T23:55:36.188Z,81.60
2018-05-26T23:58:03.705Z,81.60
